Weather at Hamburg Helmut Schmidt Airport

Public forecast

Using degrees Celsius for public forecast. Weather courtesy of forecast.io.

Current aviation weather report (METAR) for Hamburg Helmut Schmidt Airport

Retrieved 2022/01/25 11:20 UTC (5 minutes ago):

EDDH 251120Z 27006KT 3800 -DZ BR OVC003 05/04 Q1032 BECMG OVC006

Aviation forecast (TAF) for Hamburg Helmut Schmidt Airport

Retrieved 2022/01/25 06:27 UTC (5 hours ago):

TAF EDDH 250500Z 2506/2612 26005KT 9000 BKN015 TEMPO 2506/2511 4000 -DZ BR BKN013 PROB30 TEMPO 2506/2510 2500 DZ BR BKN007 TEMPO 2520/2610 4500 -DZ BR BKN013 PROB30 TEMPO 2522/2610 BKN007